Time,TemperatureF,DewpointF,PressureIn,WindDirection,WindDirectionDegrees,WindSpeedMPH,WindSpeedGustMPH,Humidity,HourlyPrecipIn,Conditions,Clouds,dailyrainin,SoftwareType,DateUTC
2013-01-24 00:02:00,33.8,29.2,30.28,NNW,329,0.0,1.0,83,0.00,,,0.00,Wunderground v.1.15,2013-01-24 06:02:00,
2013-01-24 00:07:00,33.8,29.2,30.28,NNW,327,1.0,1.0,83,0.00,,,0.00,Wunderground v.1.15,2013-01-24 06:07:00,
2013-01-24 00:13:00,33.9,29.0,30.28,NNW,337,0.0,1.0,82,0.00,,,0.00,Wunderground v.1.15,2013-01-24 06:13:00,
2013-01-24 00:19:00,34.1,28.9,30.28,NW,322,1.0,2.0,81,0.00,,,0.00,Wunderground v.1.15,2013-01-24 06:19:00,
2013-01-24 00:25:00,34.1,28.3,30.28,NNW,345,0.0,2.0,79,0.00,,,0.00,Wunderground v.1.15,2013-01-24 06:25:00,
2013-01-24 00:31:00,34.1,28.0,30.28,North,360,0.0,1.0,78,0.00,,,0.00,Wunderground v.1.15,2013-01-24 06:31:00,
2013-01-24 00:37:00,33.9,27.4,30.28,NNE,30,7.0,7.0,77,0.00,,,0.00,Wunderground v.1.15,2013-01-24 06:37:00,
2013-01-24 00:43:00,34.2,27.1,30.29,NNE,32,2.0,5.0,75,0.00,,,0.00,Wunderground v.1.15,2013-01-24 06:43:00,
2013-01-24 00:48:00,34.1,26.7,30.29,NNW,345,1.0,5.0,74,0.00,,,0.00,Wunderground v.1.15,2013-01-24 06:48:00,
2013-01-24 00:54:00,33.9,26.8,30.29,NE,37,3.0,3.0,75,0.00,,,0.00,Wunderground v.1.15,2013-01-24 06:54:00,
2013-01-24 01:00:00,33.7,26.3,30.30,NNE,27,3.0,3.0,74,0.00,,,0.00,Wunderground v.1.15,2013-01-24 07:00:00,
2013-01-24 01:06:00,33.7,26.3,30.30,NNE,23,5.0,5.0,74,0.00,,,0.00,Wunderground v.1.15,2013-01-24 07:06:00,
2013-01-24 01:12:00,33.5,26.1,30.30,NE,44,2.0,3.0,74,0.00,,,0.00,Wunderground v.1.15,2013-01-24 07:12:00,
2013-01-24 01:18:00,33.4,25.3,30.30,NE,44,7.0,7.0,72,0.00,,,0.00,Wunderground v.1.15,2013-01-24 07:18:00,
2013-01-24 01:23:00,33.6,24.5,30.30,NE,51,6.0,7.0,69,0.00,,,0.00,Wunderground v.1.15,2013-01-24 07:23:00,
2013-01-24 01:29:00,33.6,23.1,30.31,NNE,24,6.0,10.0,65,0.00,,,0.00,Wunderground v.1.15,2013-01-24 07:29:00,
2013-01-24 01:35:00,33.6,22.0,30.31,NNW,341,4.0,14.0,62,0.00,,,0.00,Wunderground v.1.15,2013-01-24 07:35:00,
2013-01-24 01:40:00,33.4,21.8,30.31,North,350,4.0,7.0,62,0.00,,,0.00,Wunderground v.1.15,2013-01-24 07:40:00,
2013-01-24 01:46:00,33.3,22.1,30.31,NE,48,4.0,10.0,63,0.00,,,0.00,Wunderground v.1.15,2013-01-24 07:46:00,
2013-01-24 01:51:00,32.9,22.4,30.32,NE,36,4.0,6.0,65,0.00,,,0.00,Wunderground v.1.15,2013-01-24 07:51:00,
2013-01-24 01:56:00,32.6,22.8,30.32,NNE,22,4.0,7.0,67,0.00,,,0.00,Wunderground v.1.15,2013-01-24 07:56:00,
2013-01-24 02:01:00,32.4,22.3,30.33,NE,46,4.0,5.0,66,0.00,,,0.00,Wunderground v.1.15,2013-01-24 08:01:00,
2013-01-24 02:06:00,32.4,21.6,30.33,NE,53,7.0,15.0,64,0.00,,,0.00,Wunderground v.1.15,2013-01-24 08:06:00,
2013-01-24 02:11:00,32.4,21.9,30.33,NNW,340,2.0,12.0,65,0.00,,,0.00,Wunderground v.1.15,2013-01-24 08:11:00,
2013-01-24 02:16:00,32.1,21.7,30.34,NNW,333,4.0,12.0,65,0.00,,,0.00,Wunderground v.1.15,2013-01-24 08:16:00,
2013-01-24 02:21:00,32.0,21.9,30.34,NE,46,6.0,9.0,66,0.00,,,0.00,Wunderground v.1.15,2013-01-24 08:21:00,
2013-01-24 02:26:00,31.9,21.8,30.34,NE,47,5.0,13.0,66,0.00,,,0.00,Wunderground v.1.15,2013-01-24 08:26:00,
2013-01-24 02:31:00,31.6,21.9,30.34,NNE,26,4.0,6.0,67,0.00,,,0.00,Wunderground v.1.15,2013-01-24 08:31:00,
2013-01-24 02:36:00,31.4,21.7,30.34,NE,56,8.0,10.0,67,0.00,,,0.00,Wunderground v.1.15,2013-01-24 08:36:00,
2013-01-24 02:41:00,31.4,21.3,30.35,NNE,30,6.0,9.0,66,0.00,,,0.00,Wunderground v.1.15,2013-01-24 08:41:00,
2013-01-24 02:46:00,31.2,21.2,30.35,NE,41,4.0,16.0,66,0.00,,,0.00,Wunderground v.1.15,2013-01-24 08:46:00,
2013-01-24 02:51:00,31.1,21.1,30.36,NE,47,13.0,15.0,66,0.00,,,0.00,Wunderground v.1.15,2013-01-24 08:51:00,
2013-01-24 02:56:00,31.0,21.0,30.36,NE,46,10.0,16.0,66,0.00,,,0.00,Wunderground v.1.15,2013-01-24 08:56:00,
2013-01-24 03:01:00,30.8,20.8,30.36,NNE,32,16.0,18.0,66,0.00,,,0.00,Wunderground v.1.15,2013-01-24 09:01:00,
2013-01-24 03:06:00,30.6,20.9,30.35,NE,41,10.0,18.0,67,0.00,,,0.00,Wunderground v.1.15,2013-01-24 09:06:00,
2013-01-24 03:11:00,30.4,21.1,30.36,NE,50,7.0,14.0,68,0.00,,,0.00,Wunderground v.1.15,2013-01-24 09:11:00,
2013-01-24 03:16:00,30.2,21.2,30.36,NE,46,12.0,14.0,69,0.00,,,0.00,Wunderground v.1.15,2013-01-24 09:16:00,
2013-01-24 03:21:00,30.1,21.2,30.36,ENE,71,10.0,11.0,69,0.00,,,0.00,Wunderground v.1.15,2013-01-24 09:21:00,
2013-01-24 03:26:00,29.8,18.7,30.36,NE,44,18.0,18.0,63,0.00,,,0.00,Wunderground v.1.15,2013-01-24 09:26:00,
2013-01-24 03:31:00,29.4,18.0,30.36,NE,40,13.0,17.0,62,0.00,,,0.00,Wunderground v.1.15,2013-01-24 09:31:00,
2013-01-24 03:36:00,29.2,17.8,30.37,ENE,61,10.0,20.0,62,0.00,,,0.00,Wunderground v.1.15,2013-01-24 09:36:00,
2013-01-24 03:41:00,29.0,17.2,30.37,NE,38,19.0,21.0,61,0.00,,,0.00,Wunderground v.1.15,2013-01-24 09:41:00,
2013-01-24 03:46:00,28.8,17.4,30.37,ENE,62,12.0,21.0,62,0.00,,,0.00,Wunderground v.1.15,2013-01-24 09:46:00,
2013-01-24 03:51:00,28.6,17.2,30.38,East,87,12.0,12.0,62,0.00,,,0.00,Wunderground v.1.15,2013-01-24 09:51:00,
2013-01-24 03:56:00,28.6,17.6,30.38,NE,46,16.0,23.0,63,0.00,,,0.00,Wunderground v.1.15,2013-01-24 09:56:00,
2013-01-24 04:01:00,28.4,17.8,30.38,NE,41,8.0,13.0,64,0.00,,,0.00,Wunderground v.1.15,2013-01-24 10:01:00,
2013-01-24 04:06:00,28.3,18.0,30.38,ENE,75,5.0,18.0,65,0.00,,,0.00,Wunderground v.1.15,2013-01-24 10:06:00,
2013-01-24 04:11:00,28.2,17.9,30.39,ENE,61,12.0,14.0,65,0.00,,,0.00,Wunderground v.1.15,2013-01-24 10:11:00,
2013-01-24 04:16:00,28.0,18.1,30.39,NE,53,9.0,16.0,66,0.00,,,0.00,Wunderground v.1.15,2013-01-24 10:16:00,
2013-01-24 04:21:00,27.9,18.4,30.39,NE,53,11.0,17.0,67,0.00,,,0.00,Wunderground v.1.15,2013-01-24 10:21:00,
2013-01-24 04:26:00,27.8,18.6,30.39,NNE,20,5.0,19.0,68,0.00,,,0.00,Wunderground v.1.15,2013-01-24 10:26:00,
2013-01-24 04:31:00,27.6,18.4,30.39,ENE,68,13.0,13.0,68,0.00,,,0.00,Wunderground v.1.15,2013-01-24 10:31:00,
2013-01-24 04:36:00,27.4,18.6,30.39,ENE,57,7.0,15.0,69,0.00,,,0.00,Wunderground v.1.15,2013-01-24 10:36:00,
2013-01-24 04:41:00,27.2,18.7,30.40,East,80,5.0,9.0,70,0.00,,,0.00,Wunderground v.1.15,2013-01-24 10:41:00,
2013-01-24 04:46:00,27.1,18.6,30.40,ENE,63,9.0,15.0,70,0.00,,,0.00,Wunderground v.1.15,2013-01-24 10:46:00,
2013-01-24 04:51:00,27.0,18.5,30.41,ESE,110,11.0,11.0,70,0.00,,,0.00,Wunderground v.1.15,2013-01-24 10:51:00,
2013-01-24 04:56:00,26.9,18.4,30.41,ENE,58,6.0,15.0,70,0.00,,,0.00,Wunderground v.1.15,2013-01-24 10:56:00,
2013-01-24 05:01:00,26.8,18.7,30.41,NE,53,6.0,13.0,71,0.00,,,0.00,Wunderground v.1.15,2013-01-24 11:01:00,
2013-01-24 05:06:00,26.7,18.6,30.42,NE,47,8.0,13.0,71,0.00,,,0.00,Wunderground v.1.15,2013-01-24 11:06:00,
2013-01-24 05:11:00,26.5,18.7,30.42,NE,47,7.0,7.0,72,0.00,,,0.00,Wunderground v.1.15,2013-01-24 11:11:00,
2013-01-24 05:16:00,26.3,18.5,30.43,NNE,16,12.0,13.0,72,0.00,,,0.00,Wunderground v.1.15,2013-01-24 11:16:00,
2013-01-24 05:21:00,26.4,18.3,30.43,SE,145,6.0,12.0,71,0.00,,,0.00,Wunderground v.1.15,2013-01-24 11:21:00,
2013-01-24 05:26:00,26.2,17.7,30.43,NE,46,15.0,17.0,70,0.00,,,0.00,Wunderground v.1.15,2013-01-24 11:26:00,
2013-01-24 05:31:00,26.1,17.6,30.43,NE,34,8.0,14.0,70,0.00,,,0.00,Wunderground v.1.15,2013-01-24 11:31:00,
2013-01-24 05:36:00,26.0,17.9,30.44,ESE,108,12.0,16.0,71,0.00,,,0.00,Wunderground v.1.15,2013-01-24 11:36:00,
2013-01-24 05:41:00,25.8,17.7,30.44,NE,50,9.0,15.0,71,0.00,,,0.00,Wunderground v.1.15,2013-01-24 11:41:00,
2013-01-24 05:46:00,25.6,17.2,30.44,SE,127,8.0,20.0,70,0.00,,,0.00,Wunderground v.1.15,2013-01-24 11:46:00,
2013-01-24 05:51:00,25.4,16.6,30.45,NE,39,9.0,19.0,69,0.00,,,0.00,Wunderground v.1.15,2013-01-24 11:51:00,
2013-01-24 05:56:00,25.0,16.3,30.46,NE,56,10.0,19.0,69,0.00,,,0.00,Wunderground v.1.15,2013-01-24 11:56:00,
2013-01-24 06:01:00,24.7,16.0,30.47,NE,40,8.0,12.0,69,0.00,,,0.00,Wunderground v.1.15,2013-01-24 12:01:00,
2013-01-24 06:06:00,24.5,16.1,30.47,NE,50,7.0,16.0,70,0.00,,,0.00,Wunderground v.1.15,2013-01-24 12:06:00,
2013-01-24 06:11:00,24.3,15.6,30.47,East,81,9.0,16.0,69,0.00,,,0.00,Wunderground v.1.15,2013-01-24 12:11:00,
2013-01-24 06:16:00,24.0,15.6,30.48,NE,45,6.0,16.0,70,0.00,,,0.00,Wunderground v.1.15,2013-01-24 12:16:00,
2013-01-24 06:21:00,23.6,14.9,30.48,NE,47,4.0,12.0,69,0.00,,,0.00,Wunderground v.1.15,2013-01-24 12:21:00,
2013-01-24 06:26:00,23.2,13.2,30.49,SE,132,5.0,17.0,65,0.00,,,0.00,Wunderground v.1.15,2013-01-24 12:26:00,
2013-01-24 06:31:00,22.8,12.1,30.49,NNE,13,6.0,15.0,63,0.00,,,0.00,Wunderground v.1.15,2013-01-24 12:31:00,
2013-01-24 06:36:00,22.5,11.1,30.49,ENE,64,11.0,16.0,61,0.00,,,0.00,Wunderground v.1.15,2013-01-24 12:36:00,
2013-01-24 06:41:00,22.4,11.0,30.49,NE,47,10.0,16.0,61,0.00,,,0.00,Wunderground v.1.15,2013-01-24 12:41:00,
2013-01-24 06:46:00,22.3,10.5,30.50,ENE,63,10.0,16.0,60,0.00,,,0.00,Wunderground v.1.15,2013-01-24 12:46:00,
2013-01-24 06:51:00,22.2,10.8,30.50,NE,43,9.0,16.0,61,0.00,,,0.00,Wunderground v.1.15,2013-01-24 12:51:00,
2013-01-24 06:56:00,22.0,11.0,30.50,NE,53,9.0,16.0,62,0.00,,,0.00,Wunderground v.1.15,2013-01-24 12:56:00,
2013-01-24 07:01:00,22.0,11.0,30.50,NNE,22,6.0,12.0,62,0.00,,,0.00,Wunderground v.1.15,2013-01-24 13:01:00,
2013-01-24 07:06:00,21.9,10.9,30.51,NE,50,7.0,16.0,62,0.00,,,0.00,Wunderground v.1.15,2013-01-24 13:06:00,
2013-01-24 07:11:00,21.9,10.9,30.50,ENE,59,8.0,17.0,62,0.00,,,0.00,Wunderground v.1.15,2013-01-24 13:11:00,
2013-01-24 07:16:00,21.9,11.2,30.50,NNE,17,3.0,17.0,63,0.00,,,0.00,Wunderground v.1.15,2013-01-24 13:16:00,
2013-01-24 07:21:00,21.9,11.2,30.51,NE,53,12.0,12.0,63,0.00,,,0.00,Wunderground v.1.15,2013-01-24 13:21:00,
2013-01-24 07:26:00,21.9,11.6,30.51,NE,53,7.0,13.0,64,0.00,,,0.00,Wunderground v.1.15,2013-01-24 13:26:00,
2013-01-24 07:31:00,21.9,11.6,30.51,NE,47,10.0,10.0,64,0.00,,,0.00,Wunderground v.1.15,2013-01-24 13:31:00,
2013-01-24 07:36:00,22.0,12.0,30.51,ENE,68,9.0,13.0,65,0.00,,,0.00,Wunderground v.1.15,2013-01-24 13:36:00,
2013-01-24 07:41:00,22.1,12.1,30.51,SE,131,4.0,9.0,65,0.00,,,0.00,Wunderground v.1.15,2013-01-24 13:41:00,
2013-01-24 07:47:00,22.2,11.9,30.51,ENE,60,2.0,11.0,64,0.00,,,0.00,Wunderground v.1.15,2013-01-24 13:47:00,
2013-01-24 07:52:00,22.3,12.0,30.51,ESE,117,3.0,10.0,64,0.00,,,0.00,Wunderground v.1.15,2013-01-24 13:52:00,
2013-01-24 07:57:00,22.5,12.1,30.51,NE,39,4.0,10.0,64,0.00,,,0.00,Wunderground v.1.15,2013-01-24 13:57:00,
2013-01-24 08:01:00,22.7,12.3,30.51,NNE,25,3.0,7.0,64,0.00,,,0.00,Wunderground v.1.15,2013-01-24 14:01:00,
2013-01-24 08:06:00,22.9,12.5,30.51,NE,48,4.0,9.0,64,0.00,,,0.00,Wunderground v.1.15,2013-01-24 14:06:00,
2013-01-24 08:11:00,22.9,12.2,30.51,NNE,18,1.0,9.0,63,0.00,,,0.00,Wunderground v.1.15,2013-01-24 14:11:00,
2013-01-24 08:16:00,22.8,11.7,30.51,East,88,5.0,13.0,62,0.00,,,0.00,Wunderground v.1.15,2013-01-24 14:16:00,
2013-01-24 08:21:00,22.9,11.1,30.52,ENE,75,5.0,12.0,60,0.00,,,0.00,Wunderground v.1.15,2013-01-24 14:21:00,
2013-01-24 08:26:00,22.9,10.3,30.52,NE,37,7.0,12.0,58,0.00,,,0.00,Wunderground v.1.15,2013-01-24 14:26:00,
2013-01-24 08:31:00,22.9,10.7,30.52,ENE,57,8.0,12.0,59,0.00,,,0.00,Wunderground v.1.15,2013-01-24 14:31:00,
2013-01-24 08:36:00,22.8,9.8,30.53,East,94,5.0,13.0,57,0.00,,,0.00,Wunderground v.1.15,2013-01-24 14:36:00,
2013-01-24 08:41:00,22.8,9.8,30.53,North,354,6.0,12.0,57,0.00,,,0.00,Wunderground v.1.15,2013-01-24 14:41:00,
2013-01-24 08:47:00,22.9,9.9,30.53,NNE,23,8.0,14.0,57,0.00,,,0.00,Wunderground v.1.15,2013-01-24 14:47:00,
2013-01-24 08:52:00,22.8,9.8,30.53,SE,141,10.0,16.0,57,0.00,,,0.00,Wunderground v.1.15,2013-01-24 14:52:00,
2013-01-24 08:57:00,23.0,10.4,30.53,NE,49,6.0,16.0,58,0.00,,,0.00,Wunderground v.1.15,2013-01-24 14:57:00,
2013-01-24 09:02:00,23.1,10.9,30.54,SE,135,8.0,12.0,59,0.00,,,0.00,Wunderground v.1.15,2013-01-24 15:02:00,
2013-01-24 09:07:00,23.3,10.7,30.53,SE,131,3.0,12.0,58,0.00,,,0.00,Wunderground v.1.15,2013-01-24 15:07:00,
2013-01-24 09:12:00,23.6,11.4,30.54,SSE,149,8.0,15.0,59,0.00,,,0.00,Wunderground v.1.15,2013-01-24 15:12:00,
2013-01-24 09:17:00,23.9,11.6,30.55,East,80,8.0,15.0,59,0.00,,,0.00,Wunderground v.1.15,2013-01-24 15:17:00,
2013-01-24 09:22:00,24.0,11.7,30.55,NNE,29,4.0,11.0,59,0.00,,,0.00,Wunderground v.1.15,2013-01-24 15:22:00,
2013-01-24 09:27:00,24.2,11.9,30.55,East,83,4.0,11.0,59,0.00,,,0.00,Wunderground v.1.15,2013-01-24 15:27:00,
2013-01-24 09:32:00,24.4,11.7,30.55,ENE,73,7.0,12.0,58,0.00,,,0.00,Wunderground v.1.15,2013-01-24 15:32:00,
2013-01-24 09:37:00,24.5,11.8,30.55,ESE,110,5.0,12.0,58,0.00,,,0.00,Wunderground v.1.15,2013-01-24 15:37:00,
2013-01-24 09:42:00,24.4,12.1,30.56,SSE,148,2.0,12.0,59,0.00,,,0.00,Wunderground v.1.15,2013-01-24 15:42:00,
2013-01-24 09:47:00,24.5,12.2,30.56,East,98,8.0,12.0,59,0.00,,,0.00,Wunderground v.1.15,2013-01-24 15:47:00,
2013-01-24 09:52:00,25.0,12.7,30.56,ENE,67,8.0,9.0,59,0.00,,,0.00,Wunderground v.1.15,2013-01-24 15:52:00,
2013-01-24 09:57:00,24.9,12.6,30.56,East,99,4.0,16.0,59,0.00,,,0.00,Wunderground v.1.15,2013-01-24 15:57:00,
2013-01-24 10:02:00,25.3,13.3,30.56,East,91,5.0,8.0,60,0.00,,,0.00,Wunderground v.1.15,2013-01-24 16:02:00,
2013-01-24 10:07:00,25.9,13.1,30.57,East,91,4.0,12.0,58,0.00,,,0.00,Wunderground v.1.15,2013-01-24 16:07:00,
2013-01-24 10:12:00,26.1,13.7,30.57,ESE,110,10.0,10.0,59,0.00,,,0.00,Wunderground v.1.15,2013-01-24 16:12:00,
2013-01-24 10:17:00,25.8,13.0,30.57,ESE,118,8.0,17.0,58,0.00,,,0.00,Wunderground v.1.15,2013-01-24 16:17:00,
2013-01-24 10:22:00,25.4,13.1,30.57,ESE,113,7.0,10.0,59,0.00,,,0.00,Wunderground v.1.15,2013-01-24 16:22:00,
2013-01-24 10:27:00,25.4,13.1,30.57,East,89,6.0,15.0,59,0.00,,,0.00,Wunderground v.1.15,2013-01-24 16:27:00,
2013-01-24 10:32:00,25.6,13.2,30.57,SSE,150,4.0,13.0,59,0.00,,,0.00,Wunderground v.1.15,2013-01-24 16:32:00,
2013-01-24 10:37:00,25.8,13.8,30.57,NE,50,12.0,13.0,60,0.00,,,0.00,Wunderground v.1.15,2013-01-24 16:37:00,
2013-01-24 10:42:00,26.1,13.7,30.57,North,349,5.0,11.0,59,0.00,,,0.00,Wunderground v.1.15,2013-01-24 16:42:00,
2013-01-24 10:47:00,26.3,13.9,30.57,ENE,71,5.0,12.0,59,0.00,,,0.00,Wunderground v.1.15,2013-01-24 16:47:00,
2013-01-24 10:52:00,26.6,14.2,30.57,NE,39,3.0,10.0,59,0.00,,,0.00,Wunderground v.1.15,2013-01-24 16:52:00,
2013-01-24 10:57:00,27.1,13.9,30.57,NE,36,7.0,13.0,57,0.00,,,0.00,Wunderground v.1.15,2013-01-24 16:57:00,
2013-01-24 11:02:00,26.9,13.7,30.57,ESE,106,9.0,17.0,57,0.00,,,0.00,Wunderground v.1.15,2013-01-24 17:02:00,
2013-01-24 11:07:00,26.9,14.1,30.56,NE,41,9.0,17.0,58,0.00,,,0.00,Wunderground v.1.15,2013-01-24 17:07:00,
2013-01-24 11:12:00,27.0,14.2,30.56,ESE,103,9.0,12.0,58,0.00,,,0.00,Wunderground v.1.15,2013-01-24 17:12:00,
2013-01-24 11:17:00,26.9,14.1,30.56,ENE,73,11.0,15.0,58,0.00,,,0.00,Wunderground v.1.15,2013-01-24 17:17:00,
2013-01-24 11:22:00,27.4,14.5,30.56,SE,128,6.0,12.0,58,0.00,,,0.00,Wunderground v.1.15,2013-01-24 17:22:00,
2013-01-24 11:27:00,27.9,15.0,30.55,SSE,160,5.0,12.0,58,0.00,,,0.00,Wunderground v.1.15,2013-01-24 17:27:00,
2013-01-24 11:32:00,27.8,14.1,30.55,SE,129,1.0,12.0,56,0.00,,,0.00,Wunderground v.1.15,2013-01-24 17:32:00,
2013-01-24 11:37:00,28.0,14.7,30.54,ENE,63,15.0,15.0,57,0.00,,,0.00,Wunderground v.1.15,2013-01-24 17:37:00,
2013-01-24 11:43:00,27.8,14.5,30.54,SE,129,6.0,13.0,57,0.00,,,0.00,Wunderground v.1.15,2013-01-24 17:43:00,
2013-01-24 11:48:00,28.3,15.0,30.54,East,87,5.0,14.0,57,0.00,,,0.00,Wunderground v.1.15,2013-01-24 17:48:00,
2013-01-24 11:53:00,28.6,14.5,30.53,East,94,12.0,13.0,55,0.00,,,0.00,Wunderground v.1.15,2013-01-24 17:53:00,
2013-01-24 11:58:00,28.6,14.9,30.53,ENE,73,4.0,13.0,56,0.00,,,0.00,Wunderground v.1.15,2013-01-24 17:58:00,
2013-01-24 12:03:00,28.7,14.1,30.52,ENE,77,3.0,11.0,54,0.00,,,0.00,Wunderground v.1.15,2013-01-24 18:03:00,
2013-01-24 12:08:00,28.6,14.9,30.52,East,94,4.0,12.0,56,0.00,,,0.00,Wunderground v.1.15,2013-01-24 18:08:00,
2013-01-24 12:13:00,29.2,15.4,30.52,ESE,117,7.0,10.0,56,0.00,,,0.00,Wunderground v.1.15,2013-01-24 18:13:00,
2013-01-24 12:18:00,29.3,14.7,30.52,East,93,4.0,14.0,54,0.00,,,0.00,Wunderground v.1.15,2013-01-24 18:18:00,
2013-01-24 12:23:00,29.7,15.5,30.52,ENE,74,5.0,9.0,55,0.00,,,0.00,Wunderground v.1.15,2013-01-24 18:23:00,
2013-01-24 12:28:00,29.8,15.2,30.51,SE,134,4.0,9.0,54,0.00,,,0.00,Wunderground v.1.15,2013-01-24 18:28:00,
2013-01-24 12:33:00,29.7,15.1,30.51,ESE,120,5.0,12.0,54,0.00,,,0.00,Wunderground v.1.15,2013-01-24 18:33:00,
2013-01-24 12:38:00,29.5,14.5,30.51,NE,39,6.0,12.0,53,0.00,,,0.00,Wunderground v.1.15,2013-01-24 18:38:00,
2013-01-24 12:43:00,29.9,14.8,30.50,SW,214,4.0,11.0,53,0.00,,,0.00,Wunderground v.1.15,2013-01-24 18:43:00,
2013-01-24 12:48:00,29.8,15.2,30.50,ESE,113,9.0,14.0,54,0.00,,,0.00,Wunderground v.1.15,2013-01-24 18:48:00,
2013-01-24 12:53:00,30.1,15.0,30.50,East,81,9.0,11.0,53,0.00,,,0.00,Wunderground v.1.15,2013-01-24 18:53:00,
2013-01-24 12:58:00,30.1,14.6,30.50,East,84,10.0,11.0,52,0.00,,,0.00,Wunderground v.1.15,2013-01-24 18:58:00,
2013-01-24 13:03:00,30.3,15.2,30.49,ENE,65,11.0,13.0,53,0.00,,,0.00,Wunderground v.1.15,2013-01-24 19:03:00,
2013-01-24 13:08:00,30.5,14.5,30.49,East,79,4.0,13.0,51,0.00,,,0.00,Wunderground v.1.15,2013-01-24 19:08:00,
2013-01-24 13:13:00,30.7,15.1,30.49,NNE,30,6.0,14.0,52,0.00,,,0.00,Wunderground v.1.15,2013-01-24 19:13:00,
2013-01-24 13:18:00,30.8,15.7,30.49,ESE,111,0.0,14.0,53,0.00,,,0.00,Wunderground v.1.15,2013-01-24 19:18:00,
2013-01-24 13:23:00,31.3,15.2,30.49,NE,46,11.0,11.0,51,0.00,,,0.00,Wunderground v.1.15,2013-01-24 19:23:00,
2013-01-24 13:28:00,31.5,15.4,30.48,East,98,3.0,11.0,51,0.00,,,0.00,Wunderground v.1.15,2013-01-24 19:28:00,
2013-01-24 13:33:00,31.5,15.0,30.48,ENE,65,4.0,10.0,50,0.00,,,0.00,Wunderground v.1.15,2013-01-24 19:33:00,
2013-01-24 13:38:00,31.6,14.6,30.47,SE,132,6.0,12.0,49,0.00,,,0.00,Wunderground v.1.15,2013-01-24 19:38:00,
2013-01-24 13:43:00,31.2,14.2,30.47,East,89,4.0,12.0,49,0.00,,,0.00,Wunderground v.1.15,2013-01-24 19:43:00,
2013-01-24 13:48:00,31.3,14.8,30.47,ENE,71,5.0,12.0,50,0.00,,,0.00,Wunderground v.1.15,2013-01-24 19:48:00,
2013-01-24 13:53:00,31.5,14.5,30.47,ESE,110,8.0,12.0,49,0.00,,,0.00,Wunderground v.1.15,2013-01-24 19:53:00,
2013-01-24 13:58:00,31.7,14.7,30.47,NE,53,4.0,12.0,49,0.00,,,0.00,Wunderground v.1.15,2013-01-24 19:58:00,
2013-01-24 14:03:00,32.1,15.1,30.47,East,91,6.0,10.0,49,0.00,,,0.00,Wunderground v.1.15,2013-01-24 20:03:00,
2013-01-24 14:08:00,31.9,14.4,30.48,ENE,71,5.0,14.0,48,0.00,,,0.00,Wunderground v.1.15,2013-01-24 20:08:00,
2013-01-24 14:13:00,32.1,15.1,30.47,East,82,7.0,9.0,49,0.00,,,0.00,Wunderground v.1.15,2013-01-24 20:13:00,
2013-01-24 14:18:00,32.1,14.6,30.46,ESE,103,7.0,12.0,48,0.00,,,0.00,Wunderground v.1.15,2013-01-24 20:18:00,
2013-01-24 14:23:00,31.8,14.8,30.46,ESE,106,8.0,13.0,49,0.00,,,0.00,Wunderground v.1.15,2013-01-24 20:23:00,
2013-01-24 14:28:00,31.9,14.4,30.46,ENE,69,9.0,13.0,48,0.00,,,0.00,Wunderground v.1.15,2013-01-24 20:28:00,
2013-01-24 14:33:00,32.0,15.0,30.46,ESE,118,5.0,10.0,49,0.00,,,0.00,Wunderground v.1.15,2013-01-24 20:33:00,
2013-01-24 14:38:00,31.9,13.9,30.46,ENE,70,8.0,12.0,47,0.00,,,0.00,Wunderground v.1.15,2013-01-24 20:38:00,
2013-01-24 14:43:00,32.1,14.6,30.46,East,93,5.0,9.0,48,0.00,,,0.00,Wunderground v.1.15,2013-01-24 20:43:00,
2013-01-24 14:48:00,32.4,14.4,30.47,East,91,5.0,12.0,47,0.00,,,0.00,Wunderground v.1.15,2013-01-24 20:48:00,
2013-01-24 14:53:00,32.2,14.2,30.46,ENE,71,6.0,14.0,47,0.00,,,0.00,Wunderground v.1.15,2013-01-24 20:53:00,
2013-01-24 14:58:00,32.5,14.0,30.47,ESE,111,4.0,14.0,46,0.00,,,0.00,Wunderground v.1.15,2013-01-24 20:58:00,
2013-01-24 15:03:00,32.5,13.5,30.45,ESE,108,2.0,15.0,45,0.00,,,0.00,Wunderground v.1.15,2013-01-24 21:03:00,
2013-01-24 15:08:00,32.9,14.4,30.45,NE,41,6.0,15.0,46,0.00,,,0.00,Wunderground v.1.15,2013-01-24 21:08:00,
2013-01-24 15:13:00,32.6,13.6,30.45,SE,132,5.0,11.0,45,0.00,,,0.00,Wunderground v.1.15,2013-01-24 21:13:00,
2013-01-24 15:18:00,32.8,14.3,30.44,East,87,5.0,11.0,46,0.00,,,0.00,Wunderground v.1.15,2013-01-24 21:18:00,
2013-01-24 15:23:00,32.7,13.7,30.44,ENE,69,7.0,12.0,45,0.00,,,0.00,Wunderground v.1.15,2013-01-24 21:23:00,
2013-01-24 15:28:00,32.9,13.9,30.44,South,171,2.0,12.0,45,0.00,,,0.00,Wunderground v.1.15,2013-01-24 21:28:00,
2013-01-24 15:33:00,32.9,13.3,30.44,SSE,156,7.0,10.0,44,0.00,,,0.00,Wunderground v.1.15,2013-01-24 21:33:00,
2013-01-24 15:38:00,32.9,13.9,30.44,ENE,65,3.0,10.0,45,0.00,,,0.00,Wunderground v.1.15,2013-01-24 21:38:00,
2013-01-24 15:43:00,33.0,13.4,30.44,ESE,110,6.0,12.0,44,0.00,,,0.00,Wunderground v.1.15,2013-01-24 21:43:00,
2013-01-24 15:48:00,33.0,14.4,30.43,ESE,108,5.0,12.0,46,0.00,,,0.00,Wunderground v.1.15,2013-01-24 21:48:00,
2013-01-24 15:53:00,32.9,14.4,30.43,ESE,102,2.0,14.0,46,0.00,,,0.00,Wunderground v.1.15,2013-01-24 21:53:00,
2013-01-24 15:58:00,32.7,14.2,30.43,ESE,113,6.0,14.0,46,0.00,,,0.00,Wunderground v.1.15,2013-01-24 21:58:00,
2013-01-24 16:03:00,32.7,14.7,30.43,ESE,120,3.0,8.0,47,0.00,,,0.00,Wunderground v.1.15,2013-01-24 22:03:00,
2013-01-24 16:08:00,32.6,14.6,30.43,East,91,3.0,9.0,47,0.00,,,0.00,Wunderground v.1.15,2013-01-24 22:08:00,
2013-01-24 16:13:00,32.2,14.2,30.43,ESE,108,10.0,11.0,47,0.00,,,0.00,Wunderground v.1.15,2013-01-24 22:13:00,
2013-01-24 16:18:00,32.1,13.6,30.43,SE,128,2.0,11.0,46,0.00,,,0.00,Wunderground v.1.15,2013-01-24 22:18:00,
2013-01-24 16:23:00,32.0,14.0,30.43,SE,131,2.0,8.0,47,0.00,,,0.00,Wunderground v.1.15,2013-01-24 22:23:00,
2013-01-24 16:28:00,32.0,13.5,30.42,East,96,5.0,8.0,46,0.00,,,0.00,Wunderground v.1.15,2013-01-24 22:28:00,
2013-01-24 16:33:00,31.9,13.4,30.43,SE,125,2.0,8.0,46,0.00,,,0.00,Wunderground v.1.15,2013-01-24 22:33:00,
2013-01-24 16:38:00,31.7,13.3,30.43,SSE,148,2.0,9.0,46,0.00,,,0.00,Wunderground v.1.15,2013-01-24 22:38:00,
2013-01-24 16:43:00,31.6,13.2,30.43,ESE,108,3.0,7.0,46,0.00,,,0.00,Wunderground v.1.15,2013-01-24 22:43:00,
2013-01-24 16:48:00,31.4,13.0,30.42,East,93,1.0,7.0,46,0.00,,,0.00,Wunderground v.1.15,2013-01-24 22:48:00,
2013-01-24 16:53:00,31.3,12.4,30.43,SE,136,6.0,8.0,45,0.00,,,0.00,Wunderground v.1.15,2013-01-24 22:53:00,
2013-01-24 16:58:00,31.2,11.8,30.43,SE,133,3.0,9.0,44,0.00,,,0.00,Wunderground v.1.15,2013-01-24 22:58:00,
2013-01-24 17:03:00,31.0,11.1,30.43,East,79,3.0,10.0,43,0.00,,,0.00,Wunderground v.1.15,2013-01-24 23:03:00,
2013-01-24 17:08:00,30.9,11.0,30.43,ESE,108,4.0,10.0,43,0.00,,,0.00,Wunderground v.1.15,2013-01-24 23:08:00,
2013-01-24 17:14:00,30.8,10.9,30.43,SE,124,4.0,7.0,43,0.00,,,0.00,Wunderground v.1.15,2013-01-24 23:14:00,
2013-01-24 17:19:00,30.6,10.7,30.43,ESE,113,2.0,7.0,43,0.00,,,0.00,Wunderground v.1.15,2013-01-24 23:19:00,
2013-01-24 17:24:00,30.6,11.2,30.42,East,98,2.0,6.0,44,0.00,,,0.00,Wunderground v.1.15,2013-01-24 23:24:00,
2013-01-24 17:29:00,30.5,11.1,30.43,ESE,103,1.0,6.0,44,0.00,,,0.00,Wunderground v.1.15,2013-01-24 23:29:00,
2013-01-24 17:34:00,30.3,11.5,30.43,East,85,1.0,4.0,45,0.00,,,0.00,Wunderground v.1.15,2013-01-24 23:34:00,
2013-01-24 17:39:00,30.2,11.9,30.44,East,94,0.0,4.0,46,0.00,,,0.00,Wunderground v.1.15,2013-01-24 23:39:00,
2013-01-24 17:44:00,30.0,11.7,30.44,East,96,0.0,2.0,46,0.00,,,0.00,Wunderground v.1.15,2013-01-24 23:44:00,
2013-01-24 17:49:00,29.9,11.6,30.43,East,84,1.0,3.0,46,0.00,,,0.00,Wunderground v.1.15,2013-01-24 23:49:00,
2013-01-24 17:54:00,29.8,11.5,30.44,NE,52,1.0,3.0,46,0.00,,,0.00,Wunderground v.1.15,2013-01-24 23:54:00,
2013-01-24 17:59:00,29.8,11.5,30.43,East,94,2.0,4.0,46,0.00,,,0.00,Wunderground v.1.15,2013-01-24 23:59:00,
2013-01-24 18:04:00,29.8,12.0,30.43,SE,138,4.0,6.0,47,0.00,,,0.00,Wunderground v.1.15,2013-01-25 00:04:00,
2013-01-24 18:09:00,29.8,11.5,30.42,SE,125,8.0,10.0,46,0.00,,,0.00,Wunderground v.1.15,2013-01-25 00:09:00,
2013-01-24 18:14:00,29.8,11.5,30.42,ENE,77,4.0,5.0,46,0.00,,,0.00,Wunderground v.1.15,2013-01-25 00:14:00,
2013-01-24 18:19:00,29.7,11.4,30.42,SE,141,2.0,6.0,46,0.00,,,0.00,Wunderground v.1.15,2013-01-25 00:19:00,
2013-01-24 18:24:00,29.7,11.4,30.42,SSE,149,0.0,5.0,46,0.00,,,0.00,Wunderground v.1.15,2013-01-25 00:24:00,
2013-01-24 18:29:00,29.7,11.4,30.42,ESE,121,2.0,6.0,46,0.00,,,0.00,Wunderground v.1.15,2013-01-25 00:29:00,
2013-01-24 18:34:00,29.7,11.4,30.42,ESE,120,2.0,5.0,46,0.00,,,0.00,Wunderground v.1.15,2013-01-25 00:34:00,
2013-01-24 18:39:00,29.7,11.4,30.41,SE,132,0.0,6.0,46,0.00,,,0.00,Wunderground v.1.15,2013-01-25 00:39:00,
2013-01-24 18:44:00,29.7,11.4,30.41,SE,125,2.0,10.0,46,0.00,,,0.00,Wunderground v.1.15,2013-01-25 00:44:00,
2013-01-24 18:49:00,29.8,11.5,30.41,SE,131,5.0,10.0,46,0.00,,,0.00,Wunderground v.1.15,2013-01-25 00:49:00,
2013-01-24 18:54:00,29.9,11.6,30.41,ESE,103,0.0,8.0,46,0.00,,,0.00,Wunderground v.1.15,2013-01-25 00:54:00,
2013-01-24 18:59:00,30.0,11.7,30.40,ESE,103,6.0,8.0,46,0.00,,,0.00,Wunderground v.1.15,2013-01-25 00:59:00,
2013-01-24 19:04:00,30.1,11.3,30.41,ENE,58,2.0,11.0,45,0.00,,,0.00,Wunderground v.1.15,2013-01-25 01:04:00,
2013-01-24 19:09:00,30.1,11.8,30.41,SSE,164,1.0,11.0,46,0.00,,,0.00,Wunderground v.1.15,2013-01-25 01:09:00,
2013-01-24 19:14:00,30.1,11.8,30.41,East,83,2.0,6.0,46,0.00,,,0.00,Wunderground v.1.15,2013-01-25 01:14:00,
2013-01-24 19:19:00,30.2,12.4,30.41,ESE,117,2.0,6.0,47,0.00,,,0.00,Wunderground v.1.15,2013-01-25 01:19:00,
2013-01-24 19:24:00,30.2,11.9,30.41,SE,138,3.0,5.0,46,0.00,,,0.00,Wunderground v.1.15,2013-01-25 01:24:00,
2013-01-24 19:29:00,30.4,12.1,30.41,SE,134,4.0,6.0,46,0.00,,,0.00,Wunderground v.1.15,2013-01-25 01:29:00,
2013-01-24 19:34:00,30.4,12.1,30.40,SE,138,1.0,7.0,46,0.00,,,0.00,Wunderground v.1.15,2013-01-25 01:34:00,
2013-01-24 19:39:00,30.5,12.2,30.40,ESE,106,2.0,7.0,46,0.00,,,0.00,Wunderground v.1.15,2013-01-25 01:39:00,
2013-01-24 19:44:00,30.5,12.2,30.39,ESE,107,5.0,7.0,46,0.00,,,0.00,Wunderground v.1.15,2013-01-25 01:44:00,
2013-01-24 19:49:00,30.6,11.7,30.40,SE,145,3.0,10.0,45,0.00,,,0.00,Wunderground v.1.15,2013-01-25 01:49:00,
2013-01-24 19:54:00,30.6,11.7,30.39,SE,138,3.0,7.0,45,0.00,,,0.00,Wunderground v.1.15,2013-01-25 01:54:00,
2013-01-24 19:59:00,30.6,11.2,30.39,SSE,152,7.0,9.0,44,0.00,,,0.00,Wunderground v.1.15,2013-01-25 01:59:00,
2013-01-24 20:04:00,30.6,11.2,30.38,ESE,103,5.0,8.0,44,0.00,,,0.00,Wunderground v.1.15,2013-01-25 02:04:00,
2013-01-24 20:09:00,30.6,11.2,30.39,SSE,148,2.0,10.0,44,0.00,,,0.00,Wunderground v.1.15,2013-01-25 02:09:00,
2013-01-24 20:14:00,30.6,10.7,30.38,South,176,4.0,6.0,43,0.00,,,0.00,Wunderground v.1.15,2013-01-25 02:14:00,
2013-01-24 20:19:00,30.6,10.7,30.38,ESE,104,3.0,12.0,43,0.00,,,0.00,Wunderground v.1.15,2013-01-25 02:19:00,
2013-01-24 20:24:00,30.7,10.8,30.38,ESE,113,2.0,10.0,43,0.00,,,0.00,Wunderground v.1.15,2013-01-25 02:24:00,
2013-01-24 20:29:00,30.7,9.7,30.38,SE,131,6.0,13.0,41,0.00,,,0.00,Wunderground v.1.15,2013-01-25 02:29:00,
2013-01-24 20:34:00,30.7,9.7,30.37,ESE,118,10.0,12.0,41,0.00,,,0.00,Wunderground v.1.15,2013-01-25 02:34:00,
2013-01-24 20:39:00,30.7,9.2,30.36,SE,134,8.0,15.0,40,0.00,,,0.00,Wunderground v.1.15,2013-01-25 02:39:00,
2013-01-24 20:44:00,30.7,9.2,30.36,ESE,108,5.0,14.0,40,0.00,,,0.00,Wunderground v.1.15,2013-01-25 02:44:00,
2013-01-24 20:49:00,30.7,8.6,30.37,East,101,4.0,14.0,39,0.00,,,0.00,Wunderground v.1.15,2013-01-25 02:49:00,
2013-01-24 20:54:00,30.7,8.6,30.37,NE,48,5.0,11.0,39,0.00,,,0.00,Wunderground v.1.15,2013-01-25 02:54:00,
2013-01-24 20:59:00,30.7,9.2,30.36,SE,146,5.0,12.0,40,0.00,,,0.00,Wunderground v.1.15,2013-01-25 02:59:00,
2013-01-24 21:04:00,30.7,9.2,30.37,East,92,4.0,8.0,40,0.00,,,0.00,Wunderground v.1.15,2013-01-25 03:04:00,
2013-01-24 21:09:00,30.7,9.2,30.36,SE,129,6.0,9.0,40,0.00,,,0.00,Wunderground v.1.15,2013-01-25 03:09:00,
2013-01-24 21:14:00,30.7,9.2,30.36,SE,131,3.0,9.0,40,0.00,,,0.00,Wunderground v.1.15,2013-01-25 03:14:00,
2013-01-24 21:19:00,30.6,9.1,30.36,SSE,160,4.0,9.0,40,0.00,,,0.00,Wunderground v.1.15,2013-01-25 03:19:00,
2013-01-24 21:24:00,30.6,9.7,30.35,SSE,162,4.0,7.0,41,0.00,,,0.00,Wunderground v.1.15,2013-01-25 03:24:00,
2013-01-24 21:29:00,30.6,9.7,30.35,East,86,6.0,8.0,41,0.00,,,0.00,Wunderground v.1.15,2013-01-25 03:29:00,
2013-01-24 21:34:00,30.6,9.7,30.35,SSE,148,2.0,6.0,41,0.00,,,0.00,Wunderground v.1.15,2013-01-25 03:34:00,
2013-01-24 21:39:00,30.7,9.7,30.35,SSE,159,3.0,7.0,41,0.00,,,0.00,Wunderground v.1.15,2013-01-25 03:39:00,
2013-01-24 21:44:00,30.7,10.3,30.35,SE,136,1.0,5.0,42,0.00,,,0.00,Wunderground v.1.15,2013-01-25 03:44:00,
2013-01-24 21:49:00,30.7,9.7,30.35,ESE,117,3.0,6.0,41,0.00,,,0.00,Wunderground v.1.15,2013-01-25 03:49:00,
2013-01-24 21:54:00,30.6,9.7,30.35,ESE,122,3.0,7.0,41,0.00,,,0.00,Wunderground v.1.15,2013-01-25 03:54:00,
2013-01-24 21:59:00,30.6,10.2,30.35,ESE,108,4.0,7.0,42,0.00,,,0.00,Wunderground v.1.15,2013-01-25 03:59:00,
2013-01-24 22:04:00,30.6,10.2,30.35,SE,134,5.0,5.0,42,0.00,,,0.00,Wunderground v.1.15,2013-01-25 04:04:00,
2013-01-24 22:09:00,30.6,9.7,30.35,East,79,1.0,6.0,41,0.00,,,0.00,Wunderground v.1.15,2013-01-25 04:09:00,
2013-01-24 22:14:00,30.6,9.7,30.35,SSE,163,4.0,5.0,41,0.00,,,0.00,Wunderground v.1.15,2013-01-25 04:14:00,
2013-01-24 22:19:00,30.6,9.7,30.34,SSE,151,3.0,6.0,41,0.00,,,0.00,Wunderground v.1.15,2013-01-25 04:19:00,
2013-01-24 22:24:00,30.6,9.7,30.34,South,171,1.0,5.0,41,0.00,,,0.00,Wunderground v.1.15,2013-01-25 04:24:00,
2013-01-24 22:29:00,30.6,9.1,30.34,SSE,158,4.0,9.0,40,0.00,,,0.00,Wunderground v.1.15,2013-01-25 04:29:00,
2013-01-24 22:34:00,30.6,9.1,30.34,SSE,153,4.0,9.0,40,0.00,,,0.00,Wunderground v.1.15,2013-01-25 04:34:00,
2013-01-24 22:39:00,30.6,9.1,30.34,South,184,4.0,14.0,40,0.00,,,0.00,Wunderground v.1.15,2013-01-25 04:39:00,
2013-01-24 22:44:00,30.5,9.0,30.35,SSE,150,4.0,7.0,40,0.00,,,0.00,Wunderground v.1.15,2013-01-25 04:44:00,
2013-01-24 22:49:00,30.5,9.0,30.33,ESE,104,5.0,8.0,40,0.00,,,0.00,Wunderground v.1.15,2013-01-25 04:49:00,
2013-01-24 22:54:00,30.5,9.0,30.33,SE,131,2.0,9.0,40,0.00,,,0.00,Wunderground v.1.15,2013-01-25 04:54:00,
2013-01-24 22:59:00,30.5,9.0,30.34,SSE,148,10.0,10.0,40,0.00,,,0.00,Wunderground v.1.15,2013-01-25 04:59:00,
2013-01-24 23:03:00,30.5,9.0,30.34,ESE,110,4.0,8.0,40,0.00,,,0.00,Wunderground v.1.15,2013-01-25 05:03:00,
2013-01-24 23:08:00,30.5,9.0,30.33,SSE,153,7.0,8.0,40,0.00,,,0.00,Wunderground v.1.15,2013-01-25 05:08:00,
2013-01-24 23:13:00,30.4,8.9,30.32,SE,146,5.0,11.0,40,0.00,,,0.00,Wunderground v.1.15,2013-01-25 05:13:00,
2013-01-24 23:18:00,30.4,8.4,30.32,SE,126,3.0,11.0,39,0.00,,,0.00,Wunderground v.1.15,2013-01-25 05:18:00,
2013-01-24 23:23:00,30.4,8.9,30.32,South,184,3.0,6.0,40,0.00,,,0.00,Wunderground v.1.15,2013-01-25 05:23:00,
2013-01-24 23:28:00,30.4,8.4,30.31,ESE,120,6.0,10.0,39,0.00,,,0.00,Wunderground v.1.15,2013-01-25 05:28:00,
2013-01-24 23:33:00,30.3,8.3,30.31,ESE,115,6.0,8.0,39,0.00,,,0.00,Wunderground v.1.15,2013-01-25 05:33:00,
2013-01-24 23:38:00,30.3,8.8,30.30,SE,131,4.0,8.0,40,0.00,,,0.00,Wunderground v.1.15,2013-01-25 05:38:00,
2013-01-24 23:43:00,30.3,8.8,30.29,SSE,160,4.0,9.0,40,0.00,,,0.00,Wunderground v.1.15,2013-01-25 05:43:00,
2013-01-24 23:48:00,30.2,8.2,30.29,ESE,118,5.0,11.0,39,0.00,,,0.00,Wunderground v.1.15,2013-01-25 05:48:00,
2013-01-24 23:53:00,30.2,8.7,30.28,ESE,104,4.0,12.0,40,0.00,,,0.00,Wunderground v.1.15,2013-01-25 05:53:00,
2013-01-24 23:58:00,30.2,8.7,30.29,ESE,114,4.0,12.0,40,0.00,,,0.00,Wunderground v.1.15,2013-01-25 05:58:00,